Time;durP1;ratioP1;P1;durP2;ratioP2;P2;SDS_P1;SDS_P2;PMS_P1;PMS_P2;Temp;Humidity;BMP_temperature;BMP_pressure;BME280_temperature;BME280_humidity;BME280_pressure;Samples;Min_cycle;Max_cycle;Signal;HPM_P1;HPM_P2
2022/03/14 00:02:08;;;;;;;0.70;0.70;;;5.30;1.00;;;;;;5012829;28;20192;-73
2022/03/14 00:04:36;;;;;;;0.77;0.77;;;5.50;1.00;;;;;;5012564;28;20203;-73
2022/03/14 00:07:01;;;;;;;0.80;0.80;;;5.60;1.00;;;;;;5012419;28;20192;-73
2022/03/14 00:09:27;;;;;;;0.70;0.70;;;5.70;1.00;;;;;;5012094;28;20222;-74
2022/03/14 00:11:54;;;;;;;0.77;0.77;;;5.70;1.00;;;;;;5012476;28;20181;-72
2022/03/14 00:14:25;;;;;;;0.70;0.70;;;5.70;1.00;;;;;;5012695;28;20181;-72
2022/03/14 00:16:51;;;;;;;0.70;0.70;;;5.80;1.00;;;;;;5012227;28;20596;-72
2022/03/14 00:19:20;;;;;;;0.70;0.70;;;6.00;1.00;;;;;;5011827;28;20181;-72
2022/03/14 00:21:46;;;;;;;0.77;0.77;;;6.00;1.00;;;;;;5012298;28;20239;-72
2022/03/14 00:24:12;;;;;;;0.90;0.90;;;5.80;1.00;;;;;;5012284;28;20628;-73
2022/03/14 00:26:38;;;;;;;0.77;0.77;;;6.00;1.00;;;;;;5012365;28;20180;-73
2022/03/14 00:29:03;;;;;;;0.80;0.80;;;5.90;1.00;;;;;;5011548;28;20259;-74
2022/03/14 00:31:30;;;;;;;0.80;0.80;;;5.90;1.00;;;;;;5012141;28;20212;-72
2022/03/14 00:33:56;;;;;;;0.70;0.70;;;6.00;1.00;;;;;;5011970;28;20176;-72
2022/03/14 00:36:24;;;;;;;0.70;0.70;;;6.00;1.00;;;;;;5011673;28;20178;-73
2022/03/14 00:38:50;;;;;;;0.80;0.80;;;6.00;1.00;;;;;;5011865;28;20216;-72
2022/03/14 00:41:16;;;;;;;0.70;0.70;;;6.00;1.00;;;;;;5011709;28;20195;-73
2022/03/14 00:43:42;;;;;;;0.70;0.70;;;6.10;1.00;;;;;;5011793;28;20559;-73
2022/03/14 00:46:08;;;;;;;0.70;0.70;;;6.20;1.00;;;;;;5011541;28;20187;-73
2022/03/14 00:48:35;;;;;;;0.80;0.80;;;6.00;1.00;;;;;;5011324;28;20229;-73
2022/03/14 00:51:02;;;;;;;0.70;0.70;;;6.00;1.00;;;;;;5010843;28;20295;-73
2022/03/14 00:53:28;;;;;;;0.70;0.70;;;5.90;87.60;;;;;;5012017;28;20180;-73
2022/03/14 00:55:54;;;;;;;0.70;0.70;;;5.90;99.90;;;;;;5011752;28;20181;-73
2022/03/14 00:58:20;;;;;;;0.80;0.80;;;5.90;86.90;;;;;;5011716;28;20273;-73
2022/03/14 01:00:48;;;;;;;0.70;0.70;;;5.90;92.70;;;;;;5010778;28;20201;-73
2022/03/14 01:03:14;;;;;;;0.73;0.73;;;5.80;1.00;;;;;;5011403;28;20255;-72
2022/03/14 01:05:40;;;;;;;0.70;0.70;;;5.90;7.10;;;;;;5011588;28;20224;-72
2022/03/14 01:08:06;;;;;;;0.70;0.70;;;5.90;1.00;;;;;;5011255;28;20191;-72
2022/03/14 01:10:32;;;;;;;0.70;0.70;;;6.00;1.00;;;;;;5011082;28;20212;-72
2022/03/14 01:12:58;;;;;;;0.77;0.77;;;5.90;38.00;;;;;;5011566;28;20255;-75
2022/03/14 01:15:24;;;;;;;0.80;0.80;;;5.80;99.90;;;;;;5011522;28;20306;-72
2022/03/14 01:17:49;;;;;;;0.80;0.80;;;5.90;99.90;;;;;;5011305;28;20620;-72
2022/03/14 01:20:15;;;;;;;0.70;0.70;;;6.10;99.90;;;;;;5011132;28;20752;-75
2022/03/14 01:22:40;;;;;;;0.70;0.70;;;5.90;99.90;;;;;;5011382;28;20202;-74
2022/03/14 01:25:06;;;;;;;0.70;0.70;;;5.90;99.90;;;;;;5011088;28;20177;-74
2022/03/14 01:27:32;;;;;;;0.80;0.80;;;6.10;99.90;;;;;;5011398;28;20276;-74
2022/03/14 01:29:57;;;;;;;0.80;0.80;;;6.20;99.90;;;;;;5010612;28;20275;-73
2022/03/14 01:32:23;;;;;;;0.70;0.70;;;6.30;1.00;;;;;;5011420;28;20230;-72
2022/03/14 01:34:49;;;;;;;0.80;0.80;;;6.50;1.00;;;;;;5011343;28;20215;-72
2022/03/14 01:37:18;;;;;;;0.80;0.80;;;6.60;1.00;;;;;;5010781;28;20302;-74
2022/03/14 01:39:43;;;;;;;0.80;0.80;;;6.60;1.00;;;;;;5010596;28;20610;-72
2022/03/14 01:42:17;;;;;;;0.70;0.70;;;6.80;1.00;;;;;;5011105;28;20199;-74
2022/03/14 01:44:44;;;;;;;0.70;0.70;;;6.70;1.00;;;;;;5011188;28;20187;-74
2022/03/14 01:47:10;;;;;;;0.70;0.70;;;6.70;1.00;;;;;;5011496;28;20246;-72
2022/03/14 01:49:35;;;;;;;0.70;0.70;;;6.90;1.00;;;;;;5010685;28;20192;-73
2022/03/14 01:52:05;;;;;;;0.73;0.73;;;7.10;1.00;;;;;;5010758;28;20686;-74
2022/03/14 01:54:31;;;;;;;0.80;0.80;;;7.40;1.00;;;;;;5011027;28;20212;-74
2022/03/14 01:56:57;;;;;;;0.80;0.80;;;7.60;1.00;;;;;;5011016;28;20230;-74
2022/03/14 01:59:23;;;;;;;0.70;0.70;;;7.10;1.00;;;;;;5013428;28;20180;-74
2022/03/14 02:01:49;;;;;;;0.70;0.70;;;6.90;1.00;;;;;;5015248;28;20222;-74
2022/03/14 02:04:17;;;;;;;0.70;0.70;;;7.00;1.00;;;;;;5015038;28;20654;-75
2022/03/14 02:06:44;;;;;;;0.70;0.70;;;7.40;1.00;;;;;;5015327;28;20192;-74
2022/03/14 02:09:09;;;;;;;0.60;0.60;;;7.60;1.00;;;;;;5014180;28;20184;-74
2022/03/14 02:11:35;;;;;;;0.70;0.70;;;7.60;1.00;;;;;;5014879;28;20259;-74
2022/03/14 02:14:00;;;;;;;0.60;0.60;;;7.70;1.00;;;;;;5014887;28;20176;-72
2022/03/14 02:16:26;;;;;;;0.70;0.70;;;7.70;1.00;;;;;;5014815;28;20663;-74
2022/03/14 02:18:51;;;;;;;0.60;0.60;;;7.60;15.90;;;;;;5014010;28;20270;-76
2022/03/14 02:21:17;;;;;;;0.70;0.70;;;7.50;27.80;;;;;;5014191;28;20228;-74
2022/03/14 02:23:44;;;;;;;0.60;0.60;;;7.60;99.90;;;;;;5014664;28;20540;-73
2022/03/14 02:26:09;;;;;;;0.60;0.60;;;7.60;1.00;;;;;;5014200;28;20184;-75
2022/03/14 02:28:35;;;;;;;0.63;0.63;;;7.70;99.90;;;;;;5014810;28;20231;-74
2022/03/14 02:31:03;;;;;;;0.70;0.70;;;7.70;1.00;;;;;;5013737;28;20200;-75
2022/03/14 02:33:29;;;;;;;0.83;0.83;;;7.70;1.00;;;;;;5014110;28;20187;-73
2022/03/14 02:35:54;;;;;;;0.60;0.60;;;7.80;99.90;;;;;;5014451;28;20344;-72
2022/03/14 02:38:20;;;;;;;0.70;0.70;;;7.80;1.00;;;;;;5014006;28;20693;-74
2022/03/14 02:40:47;;;;;;;0.67;0.67;;;7.80;1.00;;;;;;5013814;28;20192;-74
2022/03/14 02:43:19;;;;;;;0.60;0.60;;;7.80;1.00;;;;;;5014310;28;20211;-73
2022/03/14 02:45:47;;;;;;;0.60;0.60;;;7.80;1.00;;;;;;5014120;28;20180;-74
2022/03/14 02:48:13;;;;;;;0.60;0.60;;;7.80;1.00;;;;;;5013880;28;20208;-72
2022/03/14 02:50:42;;;;;;;0.70;0.70;;;7.70;99.90;;;;;;5013719;28;20616;-74
2022/03/14 02:53:09;;;;;;;0.70;0.70;;;7.70;99.90;;;;;;5014178;28;20184;-72
2022/03/14 02:55:36;;;;;;;0.70;0.70;;;7.70;1.00;;;;;;5014009;28;20180;-75
2022/03/14 02:58:02;;;;;;;0.70;0.70;;;7.60;1.00;;;;;;5013765;28;20637;-74
2022/03/14 03:00:28;;;;;;;0.60;0.60;;;7.50;1.00;;;;;;5013327;28;20679;-75
2022/03/14 03:02:55;;;;;;;0.70;0.70;;;7.50;1.00;;;;;;5013725;28;20188;-75
2022/03/14 03:05:20;;;;;;;0.60;0.60;;;7.50;63.40;;;;;;5014140;28;20203;-73
2022/03/14 03:07:47;;;;;;;0.60;0.60;;;7.50;99.90;;;;;;5013811;28;20177;-73
2022/03/14 03:10:13;;;;;;;0.70;0.70;;;7.50;99.90;;;;;;5012346;28;20288;-74
2022/03/14 03:12:40;;;;;;;0.60;0.60;;;7.60;99.90;;;;;;5013748;28;20200;-71
2022/03/14 03:15:07;;;;;;;0.70;0.70;;;7.70;99.90;;;;;;5013692;28;20185;-76
2022/03/14 03:17:34;;;;;;;0.60;0.60;;;7.70;99.90;;;;;;5013654;28;20212;-74
2022/03/14 03:19:59;;;;;;;0.50;0.50;;;7.70;99.90;;;;;;5012990;28;20193;-76
2022/03/14 03:22:28;;;;;;;0.60;0.60;;;7.60;99.90;;;;;;5013393;28;20187;-75
2022/03/14 03:24:53;;;;;;;0.60;0.60;;;7.40;99.90;;;;;;5013408;28;20640;-75
2022/03/14 03:27:19;;;;;;;0.70;0.70;;;7.50;99.90;;;;;;5012947;28;20169;-76
2022/03/14 03:29:45;;;;;;;0.70;0.70;;;7.40;99.90;;;;;;5012539;28;20275;-74
2022/03/14 03:32:10;;;;;;;0.80;0.80;;;7.40;99.90;;;;;;5013436;28;20173;-74
2022/03/14 03:34:36;;;;;;;0.60;0.60;;;7.40;99.90;;;;;;5013331;28;20271;-76
2022/03/14 03:37:01;;;;;;;0.60;0.60;;;7.50;99.90;;;;;;5013224;28;20181;-75
2022/03/14 03:39:27;;;;;;;0.60;0.60;;;7.50;99.90;;;;;;5012696;28;20226;-75
2022/03/14 03:41:52;;;;;;;0.60;0.60;;;7.50;99.90;;;;;;5013113;28;20184;-76
2022/03/14 03:44:18;;;;;;;0.60;0.60;;;7.50;99.90;;;;;;5013040;28;20188;-75
2022/03/14 03:46:43;;;;;;;0.60;0.60;;;7.50;99.90;;;;;;5013183;28;20180;-75
2022/03/14 03:49:09;;;;;;;0.60;0.60;;;7.50;99.90;;;;;;5012634;28;20661;-75
2022/03/14 03:51:34;;;;;;;0.60;0.60;;;7.70;99.90;;;;;;5012942;28;20560;-77
2022/03/14 03:54:00;;;;;;;0.60;0.60;;;7.70;99.90;;;;;;5013128;28;20185;-77
2022/03/14 03:56:25;;;;;;;0.60;0.60;;;7.70;99.90;;;;;;5012960;28;20204;-77
2022/03/14 03:58:51;;;;;;;0.73;0.73;;;7.70;99.90;;;;;;5012563;28;20208;-76
2022/03/14 04:01:19;;;;;;;0.67;0.67;;;7.70;99.90;;;;;;5012607;28;20207;-77
2022/03/14 04:03:54;;;;;;;0.60;0.60;;;7.70;99.90;;;;;;5013031;28;20176;-75
2022/03/14 04:06:21;;;;;;;0.60;0.60;;;7.60;99.90;;;;;;5012889;28;20192;-76
2022/03/14 04:08:47;;;;;;;0.70;0.70;;;7.60;99.90;;;;;;5012714;28;20188;-78
2022/03/14 04:11:13;;;;;;;0.70;0.70;;;7.60;99.90;;;;;;5012656;28;20251;-79
2022/03/14 04:13:39;;;;;;;0.70;0.70;;;7.70;99.90;;;;;;5012583;28;20184;-77
2022/03/14 04:16:04;;;;;;;0.67;0.67;;;7.60;99.90;;;;;;5012868;28;20180;-76
2022/03/14 04:18:30;;;;;;;0.60;0.60;;;7.60;99.90;;;;;;5012633;28;20220;-78
2022/03/14 04:20:57;;;;;;;0.60;0.60;;;7.60;99.90;;;;;;5012480;28;20224;-77
2022/03/14 04:23:23;;;;;;;0.73;0.73;;;7.50;99.90;;;;;;5013161;28;20188;-77
2022/03/14 04:25:48;;;;;;;0.67;0.67;;;7.50;99.90;;;;;;5012278;28;20655;-78
2022/03/14 04:28:15;;;;;;;0.60;0.60;;;7.50;99.90;;;;;;5012520;28;20207;-77
2022/03/14 04:30:41;;;;;;;0.60;0.60;;;7.40;99.90;;;;;;5011919;28;20200;-77
2022/03/14 04:33:08;;;;;;;0.50;0.50;;;7.30;99.90;;;;;;5012120;28;20584;-77
2022/03/14 04:35:35;;;;;;;0.60;0.60;;;7.30;99.90;;;;;;5012837;28;20181;-75
2022/03/14 04:38:04;;;;;;;0.63;0.63;;;7.20;99.90;;;;;;5012846;28;20239;-78
2022/03/14 04:40:32;;;;;;;0.70;0.70;;;7.30;99.90;;;;;;5011678;28;20722;-79
2022/03/14 04:42:58;;;;;;;0.67;0.67;;;7.30;99.90;;;;;;5012285;28;20188;-78
2022/03/14 04:45:24;;;;;;;0.70;0.70;;;7.30;99.90;;;;;;5012389;28;20630;-78
2022/03/14 04:47:49;;;;;;;0.70;0.70;;;7.30;99.90;;;;;;5012321;28;20176;-77
2022/03/14 04:50:16;;;;;;;0.70;0.70;;;7.20;99.90;;;;;;5011667;28;20227;-75
2022/03/14 04:52:41;;;;;;;0.70;0.70;;;7.20;99.90;;;;;;5012216;28;20188;-76
2022/03/14 04:55:07;;;;;;;0.70;0.70;;;7.30;99.90;;;;;;5012390;28;20223;-77
2022/03/14 04:57:33;;;;;;;0.70;0.70;;;7.20;99.90;;;;;;5011998;28;20274;-76
2022/03/14 04:59:58;;;;;;;0.70;0.70;;;7.30;99.90;;;;;;5012067;28;20200;-75
2022/03/14 05:02:24;;;;;;;0.60;0.60;;;7.30;99.90;;;;;;5013403;28;20176;-78
2022/03/14 05:04:50;;;;;;;0.60;0.60;;;7.30;99.90;;;;;;5013201;28;20192;-77
2022/03/14 05:07:16;;;;;;;0.67;0.67;;;7.30;99.90;;;;;;5013169;28;20185;-75
2022/03/14 05:09:42;;;;;;;0.70;0.70;;;7.30;99.90;;;;;;5012877;28;20200;-76
2022/03/14 05:12:08;;;;;;;0.60;0.60;;;7.20;99.90;;;;;;5013531;28;20184;-77
2022/03/14 05:14:34;;;;;;;0.60;0.60;;;7.20;99.90;;;;;;5012472;28;20180;-74
2022/03/14 05:17:00;;;;;;;0.60;0.60;;;7.30;99.90;;;;;;5012150;28;20188;-76
2022/03/14 05:19:26;;;;;;;0.70;0.70;;;7.30;99.90;;;;;;5018652;28;20241;-73
2022/03/14 05:21:51;;;;;;;0.60;0.60;;;7.30;99.90;;;;;;5030516;28;20176;-74
2022/03/14 05:24:17;;;;;;;0.70;0.70;;;7.40;99.90;;;;;;5030129;28;20587;-75
2022/03/14 05:26:43;;;;;;;0.70;0.70;;;7.40;99.90;;;;;;5030062;28;20701;-75
2022/03/14 05:29:12;;;;;;;0.70;0.70;;;7.40;99.90;;;;;;5029009;28;20184;-75
2022/03/14 05:31:38;;;;;;;0.60;0.60;;;7.40;99.90;;;;;;5031078;28;20199;-73
2022/03/14 05:34:04;;;;;;;0.70;0.70;;;7.30;99.90;;;;;;5031021;28;20203;-75
2022/03/14 05:36:29;;;;;;;0.70;0.70;;;7.40;99.90;;;;;;5031473;28;20617;-72
2022/03/14 05:38:55;;;;;;;0.70;0.70;;;7.30;99.90;;;;;;5030741;28;20204;-75
2022/03/14 05:41:20;;;;;;;0.70;0.70;;;7.40;99.90;;;;;;5030893;28;20192;-74
2022/03/14 05:43:46;;;;;;;0.70;0.70;;;7.30;99.90;;;;;;5032701;28;20266;-76
2022/03/14 05:46:11;;;;;;;0.80;0.80;;;7.30;99.90;;;;;;5032067;28;20172;-76
2022/03/14 05:48:37;;;;;;;0.70;0.70;;;7.20;99.90;;;;;;5031159;28;20596;-78
2022/03/14 05:51:07;;;;;;;0.70;0.70;;;7.10;99.90;;;;;;5031111;28;20600;-77
2022/03/14 05:53:33;;;;;;;0.63;0.63;;;7.10;99.90;;;;;;5032826;28;20186;-77
2022/03/14 05:55:58;;;;;;;0.80;0.80;;;7.10;99.90;;;;;;5033126;28;20168;-78
2022/03/14 05:58:24;;;;;;;0.80;0.80;;;7.10;99.90;;;;;;5032623;28;20218;-78
2022/03/14 06:00:52;;;;;;;0.70;0.70;;;7.10;99.90;;;;;;5031509;28;20567;-78
2022/03/14 06:03:21;;;;;;;0.67;0.67;;;7.10;99.90;;;;;;5031909;28;20255;-78
2022/03/14 06:05:50;;;;;;;0.70;0.70;;;7.10;99.90;;;;;;5031138;28;20202;-77
2022/03/14 06:08:16;;;;;;;0.70;0.70;;;7.10;99.90;;;;;;5031259;28;20172;-76
2022/03/14 06:10:46;;;;;;;0.60;0.60;;;7.10;99.90;;;;;;5031575;28;20287;-74
2022/03/14 06:13:15;;;;;;;0.70;0.70;;;7.10;99.90;;;;;;5031935;28;20183;-77
2022/03/14 06:15:42;;;;;;;0.70;0.70;;;7.10;99.90;;;;;;5031908;28;20317;-77
2022/03/14 06:18:07;;;;;;;0.70;0.70;;;7.10;99.90;;;;;;5031804;28;20208;-77
2022/03/14 06:20:33;;;;;;;0.60;0.60;;;7.10;99.90;;;;;;5031284;28;20224;-78
2022/03/14 06:22:58;;;;;;;0.67;0.67;;;7.10;99.90;;;;;;5032180;28;20306;-76
2022/03/14 06:25:24;;;;;;;0.70;0.70;;;7.10;99.90;;;;;;5031557;28;20588;-76
2022/03/14 06:27:50;;;;;;;0.80;0.80;;;7.20;99.90;;;;;;5031316;28;20168;-77
2022/03/14 06:30:16;;;;;;;0.70;0.70;;;7.20;99.90;;;;;;5030899;28;20200;-77
2022/03/14 06:32:43;;;;;;;0.60;0.60;;;7.20;99.90;;;;;;5031656;28;20179;-77
2022/03/14 06:35:13;;;;;;;0.70;0.70;;;7.10;99.90;;;;;;5031347;28;20214;-78
2022/03/14 06:37:38;;;;;;;0.50;0.50;;;7.20;99.90;;;;;;5031031;28;20674;-75
2022/03/14 06:40:05;;;;;;;0.67;0.67;;;7.20;99.90;;;;;;5030762;28;20196;-75
2022/03/14 06:42:30;;;;;;;0.60;0.60;;;7.20;99.90;;;;;;5030977;28;20180;-76
2022/03/14 06:45:01;;;;;;;0.60;0.60;;;7.30;99.90;;;;;;5032330;28;20176;-76
2022/03/14 06:47:26;;;;;;;0.67;0.67;;;7.40;99.90;;;;;;5034760;28;20187;-76
2022/03/14 06:49:52;;;;;;;0.70;0.70;;;7.50;96.40;;;;;;5033994;28;20195;-76
2022/03/14 06:52:18;;;;;;;0.60;0.60;;;7.40;94.80;;;;;;5034452;28;20184;-75
2022/03/14 06:54:43;;;;;;;0.60;0.60;;;7.30;99.90;;;;;;5034809;28;20208;-76
2022/03/14 06:57:10;;;;;;;0.70;0.70;;;7.30;53.30;;;;;;5034399;28;20696;-76
2022/03/14 06:59:36;;;;;;;0.70;0.70;;;7.30;94.90;;;;;;5033621;28;20231;-76
2022/03/14 07:02:03;;;;;;;0.67;0.67;;;8.80;1.00;;;;;;5034245;28;20223;-76
2022/03/14 07:04:29;;;;;;;0.60;0.60;;;9.60;1.00;;;;;;5033955;28;20172;-77
2022/03/14 07:06:55;;;;;;;0.50;0.50;;;9.90;1.00;;;;;;5034953;28;20184;-78
2022/03/14 07:09:21;;;;;;;0.60;0.60;;;10.40;1.00;;;;;;5034608;28;20238;-78
2022/03/14 07:11:51;;;;;;;0.50;0.50;;;9.10;1.00;;;;;;5035679;28;20175;-77
2022/03/14 07:14:19;;;;;;;0.63;0.63;;;8.30;1.00;;;;;;5035715;28;20264;-76
2022/03/14 07:16:46;;;;;;;0.60;0.60;;;8.00;1.00;;;;;;5036585;28;20500;-75
2022/03/14 07:19:11;;;;;;;0.60;0.60;;;7.80;1.00;;;;;;5035027;28;20270;-76
2022/03/14 07:21:37;;;;;;;0.70;0.70;;;7.60;1.00;;;;;;5034891;28;20549;-75
2022/03/14 07:24:02;;;;;;;0.50;0.50;;;8.10;1.00;;;;;;5034832;28;20179;-78
2022/03/14 07:26:28;;;;;;;0.57;0.57;;;11.30;99.90;;;;;;5034991;28;20592;-76
2022/03/14 07:28:53;;;;;;;0.60;0.60;;;12.60;1.00;;;;;;5033767;28;20318;-79
2022/03/14 07:31:20;;;;;;;0.50;0.50;;;13.30;99.90;;;;;;5034193;28;20271;-77
2022/03/14 07:33:47;;;;;;;0.50;0.50;;;14.30;99.90;;;;;;5035342;28;20175;-76
2022/03/14 07:36:13;;;;;;;0.40;0.40;;;13.60;83.00;;;;;;5035562;28;20179;-77
2022/03/14 07:38:38;;;;;;;0.37;0.37;;;13.80;35.40;;;;;;5036342;28;20306;-77
2022/03/14 07:41:04;;;;;;;0.40;0.40;;;14.70;1.00;;;;;;5034362;28;20196;-78
2022/03/14 07:43:30;;;;;;;0.30;0.30;;;14.60;1.00;;;;;;5035057;28;20184;-78
2022/03/14 07:45:55;;;;;;;0.30;0.30;;;14.00;1.00;;;;;;5034520;28;20218;-76
2022/03/14 07:48:21;;;;;;;0.40;0.40;;;14.30;1.00;;;;;;5034434;28;20203;-76
2022/03/14 07:50:46;;;;;;;0.30;0.30;;;14.70;1.00;;;;;;5034443;28;20224;-79
2022/03/14 07:53:12;;;;;;;0.30;0.30;;;14.50;1.00;;;;;;5035671;28;20270;-76
2022/03/14 07:55:38;;;;;;;0.40;0.40;;;14.50;1.00;;;;;;5034343;28;20179;-77
2022/03/14 07:58:04;;;;;;;0.30;0.30;;;14.10;1.00;;;;;;5036436;28;20219;-77
2022/03/14 08:00:29;;;;;;;0.30;0.30;;;14.10;1.00;;;;;;5034960;28;20238;-79
2022/03/14 08:02:55;;;;;;;0.30;0.30;;;13.90;1.00;;;;;;5037826;28;20182;-77
2022/03/14 08:05:24;;;;;;;0.30;0.30;;;12.90;96.60;;;;;;5036471;28;20191;-78
2022/03/14 08:07:51;;;;;;;0.30;0.30;;;13.00;13.40;;;;;;5038644;28;20191;-77
2022/03/14 08:10:17;;;;;;;0.40;0.40;;;13.40;99.90;;;;;;5043812;28;20200;-79
2022/03/14 08:12:50;;;;;;;0.30;0.30;;;13.90;1.00;;;;;;5044619;28;20179;-78
2022/03/14 08:15:19;;;;;;;0.30;0.30;;;14.50;1.00;;;;;;5040696;28;20183;-76
2022/03/14 08:17:44;;;;;;;0.30;0.30;;;15.50;1.00;;;;;;5040037;28;20277;-78
2022/03/14 08:20:10;;;;;;;0.30;0.30;;;15.30;1.00;;;;;;5037662;28;20207;-75
2022/03/14 08:22:36;;;;;;;0.40;0.40;;;14.90;1.00;;;;;;5036030;28;20176;-77
2022/03/14 08:25:01;;;;;;;0.33;0.33;;;14.60;1.00;;;;;;5034796;28;20207;-79
2022/03/14 08:27:27;;;;;;;0.27;0.27;;;13.40;1.00;;;;;;5034670;28;20184;-77
2022/03/14 08:29:52;;;;;;;0.40;0.40;;;12.30;1.00;;;;;;5033388;28;20195;-76
2022/03/14 08:32:20;;;;;;;0.40;0.40;;;12.50;30.20;;;;;;5034579;28;20249;-78
2022/03/14 08:34:46;;;;;;;0.40;0.40;;;13.00;1.00;;;;;;5034315;28;20180;-77
2022/03/14 08:37:11;;;;;;;0.40;0.40;;;13.70;1.00;;;;;;5033552;28;20310;-76
2022/03/14 08:39:37;;;;;;;0.40;0.40;;;14.40;1.00;;;;;;5032997;28;20198;-78
2022/03/14 08:42:04;;;;;;;0.30;0.30;;;14.20;1.00;;;;;;5033827;28;20195;-78
2022/03/14 08:44:30;;;;;;;0.30;0.30;;;15.30;1.00;;;;;;5034282;28;20221;-76
2022/03/14 08:46:55;;;;;;;0.40;0.40;;;13.20;1.00;;;;;;5034105;28;20263;-75
2022/03/14 08:49:21;;;;;;;0.40;0.40;;;12.80;1.00;;;;;;5033677;28;20176;-77
2022/03/14 08:51:46;;;;;;;0.50;0.50;;;11.60;1.00;;;;;;5033680;28;20651;-78
2022/03/14 08:54:12;;;;;;;0.40;0.40;;;12.40;1.00;;;;;;5033547;28;20176;-76
2022/03/14 08:56:37;;;;;;;0.43;0.43;;;13.50;1.00;;;;;;5032891;28;20171;-76
2022/03/14 08:59:04;;;;;;;0.40;0.40;;;13.50;1.00;;;;;;5033006;28;20210;-76
2022/03/14 09:01:32;;;;;;;0.50;0.50;;;12.70;1.00;;;;;;5034015;28;20218;-76
2022/03/14 09:03:58;;;;;;;0.40;0.40;;;12.10;1.00;;;;;;5034063;28;20184;-75
2022/03/14 09:06:24;;;;;;;0.40;0.40;;;11.60;1.00;;;;;;5033219;28;20202;-77
2022/03/14 09:08:49;;;;;;;0.60;0.60;;;11.30;1.00;;;;;;5032425;28;20187;-77
2022/03/14 09:11:16;;;;;;;0.50;0.50;;;10.80;1.00;;;;;;5033535;28;20541;-78
2022/03/14 09:13:42;;;;;;;0.73;0.73;;;10.80;1.00;;;;;;5033615;28;20548;-75
2022/03/14 09:16:08;;;;;;;0.60;0.60;;;10.80;1.00;;;;;;5033760;28;20172;-76
2022/03/14 09:18:34;;;;;;;0.57;0.57;;;12.00;1.00;;;;;;5033744;28;20220;-77
2022/03/14 09:21:00;;;;;;;0.43;0.43;;;13.10;1.00;;;;;;5033496;28;20195;-77
2022/03/14 09:23:26;;;;;;;0.40;0.40;;;12.20;1.00;;;;;;5034019;28;20191;-76
2022/03/14 09:25:52;;;;;;;0.50;0.50;;;11.50;1.00;;;;;;5033670;28;20184;-76
2022/03/14 09:28:20;;;;;;;0.50;0.50;;;11.40;1.00;;;;;;5033596;28;20186;-74
2022/03/14 09:30:46;;;;;;;0.60;0.60;;;11.20;1.00;;;;;;5032599;28;20195;-76
2022/03/14 09:33:11;;;;;;;0.57;0.57;;;11.10;1.00;;;;;;5033350;28;20179;-75
2022/03/14 09:35:37;;;;;;;0.60;0.60;;;11.20;1.00;;;;;;5033849;28;20666;-78
2022/03/14 09:38:03;;;;;;;0.50;0.50;;;11.10;1.00;;;;;;5032676;28;20204;-76
2022/03/14 09:40:31;;;;;;;0.60;0.60;;;11.20;1.00;;;;;;5032741;28;20215;-76
2022/03/14 09:42:59;;;;;;;0.60;0.60;;;11.20;1.00;;;;;;5032499;28;20229;-78
2022/03/14 09:45:26;;;;;;;0.50;0.50;;;12.20;1.00;;;;;;5033317;28;20190;-75
2022/03/14 09:47:59;;;;;;;0.40;0.40;;;12.90;1.00;;;;;;5033591;28;20260;-76
2022/03/14 09:50:32;;;;;;;0.40;0.40;;;14.30;1.00;;;;;;5032883;28;20200;-78
2022/03/14 09:52:59;;;;;;;0.40;0.40;;;14.60;1.00;;;;;;5015455;28;20386;-78
2022/03/14 09:55:25;;;;;;;0.30;0.30;;;14.60;1.00;;;;;;5033832;28;20271;-77
2022/03/14 09:57:52;;;;;;;0.30;0.30;;;15.40;1.00;;;;;;5033460;28;20238;-75
2022/03/14 10:00:18;;;;;;;0.40;0.40;;;15.40;1.00;;;;;;5033858;28;20195;-76
2022/03/14 10:02:45;;;;;;;0.40;0.40;;;15.50;1.00;;;;;;5034080;28;20180;-76
2022/03/14 10:05:13;;;;;;;0.30;0.30;;;15.60;1.00;;;;;;5033331;28;20198;-75
2022/03/14 10:07:43;;;;;;;0.40;0.40;;;16.10;1.00;;;;;;5033281;28;20224;-77
2022/03/14 10:10:09;;;;;;;0.30;0.30;;;15.80;1.00;;;;;;5071478;23;20228;-76
2022/03/14 10:12:35;;;;;;;0.30;0.30;;;14.30;1.00;;;;;;5031922;28;20187;-75
2022/03/14 10:15:02;;;;;;;0.30;0.30;;;14.70;1.00;;;;;;5031730;28;20669;-75
2022/03/14 10:17:28;;;;;;;0.23;0.23;;;15.50;1.00;;;;;;5031578;28;20211;-75
2022/03/14 10:19:59;;;;;;;0.30;0.30;;;14.70;1.00;;;;;;5033043;28;20203;-76
2022/03/14 10:22:31;;;;;;;0.20;0.20;;;15.40;1.00;;;;;;5035699;28;20171;-73
2022/03/14 10:25:23;;;;;;;0.20;0.20;;;16.90;1.00;;;;;;5035443;28;20664;-75
2022/03/14 10:27:57;;;;;;;0.30;0.30;;;15.60;1.00;;;;;;5030554;28;20176;-72
2022/03/14 10:30:29;;;;;;;0.20;0.20;;;16.60;1.00;;;;;;5034775;28;20623;-72
2022/03/14 10:33:14;;;;;;;0.20;0.20;;;17.60;1.00;;;;;;5034891;28;20164;-73
2022/03/14 10:35:44;;;;;;;0.30;0.30;;;19.00;1.00;;;;;;5035227;28;20179;-73
2022/03/14 10:38:12;;;;;;;0.20;0.20;;;18.30;1.00;;;;;;5034822;28;20214;-71
2022/03/14 10:40:45;;;;;;;0.20;0.20;;;18.10;1.00;;;;;;5034401;28;20671;-73
2022/03/14 10:43:21;;;;;;;0.27;0.27;;;17.90;1.00;;;;;;5034829;28;20176;-74
2022/03/14 10:45:47;;;;;;;0.30;0.30;;;19.10;1.00;;;;;;5034607;28;20654;-74
2022/03/14 10:48:12;;;;;;;0.20;0.20;;;19.20;1.00;;;;;;5034817;28;20194;-73
2022/03/14 10:50:39;;;;;;;0.33;0.33;;;19.20;1.00;;;;;;5034067;28;20204;-73
2022/03/14 10:53:11;;;;;;;0.30;0.30;;;18.20;1.00;;;;;;5034241;28;20187;-75
2022/03/14 10:55:42;;;;;;;0.30;0.30;;;17.30;1.00;;;;;;5035187;28;20318;-76
2022/03/14 10:58:19;;;;;;;0.20;0.20;;;16.20;1.00;;;;;;5034707;28;20269;-73
2022/03/14 11:00:56;;;;;;;0.30;0.30;;;16.70;1.00;;;;;;5034157;28;20289;-75
2022/03/14 11:03:35;;;;;;;0.20;0.20;;;17.00;1.00;;;;;;5034413;28;20270;-74
2022/03/14 11:06:05;;;;;;;0.30;0.30;;;17.20;1.00;;;;;;5034281;28;20207;-76
2022/03/14 11:08:35;;;;;;;0.30;0.30;;;17.00;1.00;;;;;;5034735;28;20203;-75
2022/03/14 11:11:14;;;;;;;0.33;0.33;;;16.80;1.00;;;;;;5033855;28;20258;-74
2022/03/14 11:13:43;;;;;;;0.30;0.30;;;17.90;1.00;;;;;;5034457;28;20540;-73
2022/03/14 11:16:29;;;;;;;0.30;0.30;;;18.90;1.00;;;;;;5034345;28;20172;-74
2022/03/14 11:18:55;;;;;;;0.30;0.30;;;18.80;1.00;;;;;;5016142;28;20210;-77
2022/03/14 11:21:24;;;;;;;0.20;0.20;;;19.00;1.00;;;;;;5034696;28;20253;-73
2022/03/14 11:23:51;;;;;;;0.40;0.40;;;18.70;1.00;;;;;;5034938;28;20241;-74
2022/03/14 11:26:24;;;;;;;0.30;0.30;;;18.20;1.00;;;;;;5034170;28;20172;-76
2022/03/14 11:28:51;;;;;;;0.30;0.30;;;17.00;1.00;;;;;;5033912;28;20188;-74
2022/03/14 11:31:21;;;;;;;0.30;0.30;;;18.00;1.00;;;;;;5032762;28;20808;-74
2022/03/14 11:33:47;;;;;;;0.37;0.37;;;17.40;1.00;;;;;;5034177;28;20182;-75
2022/03/14 11:36:15;;;;;;;0.20;0.20;;;17.90;1.00;;;;;;5033952;28;20176;-75
2022/03/14 11:38:43;;;;;;;0.30;0.30;;;17.60;1.00;;;;;;5033769;28;20374;-74
2022/03/14 11:41:08;;;;;;;0.30;0.30;;;17.90;1.00;;;;;;5033210;28;20565;-73
2022/03/14 11:43:36;;;;;;;0.30;0.30;;;18.20;1.00;;;;;;5033639;28;20180;-74
2022/03/14 11:46:02;;;;;;;0.30;0.30;;;17.90;1.00;;;;;;5034260;28;20230;-75
2022/03/14 11:48:35;;;;;;;0.30;0.30;;;15.70;1.00;;;;;;5034263;28;20184;-75
2022/03/14 11:51:03;;;;;;;0.40;0.40;;;17.10;1.00;;;;;;5034071;28;20227;-75
2022/03/14 11:53:35;;;;;;;0.30;0.30;;;18.50;1.00;;;;;;5034290;28;20183;-74
2022/03/14 11:56:06;;;;;;;0.30;0.30;;;19.70;1.00;;;;;;5033763;28;20176;-73
2022/03/14 11:58:39;;;;;;;0.30;0.30;;;20.40;1.00;;;;;;5034471;28;20227;-76
2022/03/14 12:01:20;;;;;;;0.30;0.30;;;19.70;1.00;;;;;;5033183;28;20290;-75
2022/03/14 12:03:57;;;;;;;0.30;0.30;;;20.70;1.00;;;;;;5033615;28;20258;-76
2022/03/14 12:06:47;;;;;;;0.30;0.30;;;18.20;1.00;;;;;;5033301;28;20336;-75
2022/03/14 12:09:27;;;;;;;0.30;0.30;;;18.60;1.00;;;;;;5033025;28;20175;-73
2022/03/14 12:12:16;;;;;;;0.27;0.27;;;19.50;1.00;;;;;;5033123;28;20194;-75
2022/03/14 12:14:44;;;;;;;0.30;0.30;;;20.00;1.00;;;;;;5032797;28;20176;-74
2022/03/14 12:17:15;;;;;;;0.30;0.30;;;17.60;1.00;;;;;;5034021;28;20630;-73
2022/03/14 12:19:51;;;;;;;0.30;0.30;;;17.30;1.00;;;;;;5032565;28;20704;-75
2022/03/14 12:22:41;;;;;;;0.30;0.30;;;16.10;1.00;;;;;;5033290;28;20206;-75
2022/03/14 12:25:08;;;;;;;0.27;0.27;;;17.70;1.00;;;;;;5033112;28;20259;-75
2022/03/14 12:27:39;;;;;;;0.30;0.30;;;20.00;1.00;;;;;;5033240;28;20202;-74
2022/03/14 12:30:06;;;;;;;0.30;0.30;;;20.30;1.00;;;;;;5032790;28;20196;-76
2022/03/14 12:32:36;;;;;;;0.30;0.30;;;18.40;1.00;;;;;;5033113;28;20549;-74
2022/03/14 12:35:04;;;;;;;0.30;0.30;;;19.50;1.00;;;;;;5032700;28;20172;-74
2022/03/14 12:37:39;;;;;;;0.30;0.30;;;19.20;1.00;;;;;;5032564;28;20260;-73
2022/03/14 12:40:12;;;;;;;0.30;0.30;;;18.70;1.00;;;;;;5032301;28;20195;-74
2022/03/14 12:42:45;;;;;;;0.30;0.30;;;19.20;1.00;;;;;;5032894;28;20229;-74
2022/03/14 12:45:15;;;;;;;0.30;0.30;;;20.80;1.00;;;;;;5032712;28;20229;-74
2022/03/14 12:47:58;;;;;;;0.30;0.30;;;21.40;1.00;;;;;;5032506;28;20180;-73
2022/03/14 12:50:42;;;;;;;0.30;0.30;;;21.90;1.00;;;;;;5031822;28;20682;-75
2022/03/14 12:53:28;;;;;;;0.30;0.30;;;21.60;1.00;;;;;;5032610;28;20710;-75
2022/03/14 12:55:59;;;;;;;0.20;0.20;;;22.10;1.00;;;;;;5032591;28;20179;-76
2022/03/14 12:58:33;;;;;;;0.30;0.30;;;22.10;1.00;;;;;;5032435;28;20203;-76
2022/03/14 13:01:01;;;;;;;0.30;0.30;;;21.40;1.00;;;;;;5032513;28;20556;-76